sensor_id;sensor_type;location;lat;lon;timestamp;pressure;altitude;pressure_sealevel;temperature;humidity
53868;BME280;41577;47.470;19.080;2022-07-29T00:00:19;100168.75;;;23.80;45.55
53868;BME280;41577;47.470;19.080;2022-07-29T00:00:34;100163.28;;;23.80;45.88
53868;BME280;41577;47.470;19.080;2022-07-29T00:00:48;100155.38;;;23.78;45.55
53868;BME280;41577;47.470;19.080;2022-07-29T00:01:06;100162.75;;;23.78;45.59
53868;BME280;41577;47.470;19.080;2022-07-29T00:01:24;100157.31;;;23.78;45.55
53868;BME280;41577;47.470;19.080;2022-07-29T00:01:40;100170.94;;;23.78;45.26
53868;BME280;41577;47.470;19.080;2022-07-29T00:01:56;100163.88;;;23.77;45.11
53868;BME280;41577;47.470;19.080;2022-07-29T00:02:13;100169.03;;;23.78;45.17
53868;BME280;41577;47.470;19.080;2022-07-29T00:02:31;100167.63;;;23.81;44.82
53868;BME280;41577;47.470;19.080;2022-07-29T00:02:45;100160.28;;;23.82;44.83
53868;BME280;41577;47.470;19.080;2022-07-29T00:03:02;100172.03;;;23.82;44.99
53868;BME280;41577;47.470;19.080;2022-07-29T00:03:16;100166.56;;;23.82;44.93
53868;BME280;41577;47.470;19.080;2022-07-29T00:03:31;100169.28;;;23.82;44.74
53868;BME280;41577;47.470;19.080;2022-07-29T00:03:47;100163.84;;;23.82;44.68
53868;BME280;41577;47.470;19.080;2022-07-29T00:04:03;100165.75;;;23.82;44.64
53868;BME280;41577;47.470;19.080;2022-07-29T00:04:17;100162.19;;;23.81;44.60
53868;BME280;41577;47.470;19.080;2022-07-29T00:04:37;100161.38;;;23.80;44.92
53868;BME280;41577;47.470;19.080;2022-07-29T00:04:53;100167.63;;;23.81;45.51
53868;BME280;41577;47.470;19.080;2022-07-29T00:05:14;100166.56;;;23.82;45.27
53868;BME280;41577;47.470;19.080;2022-07-29T00:05:30;100159.47;;;23.81;45.01
53868;BME280;41577;47.470;19.080;2022-07-29T00:05:44;100162.19;;;23.81;45.11
53868;BME280;41577;47.470;19.080;2022-07-29T00:06:01;100171.22;;;23.82;44.91
53868;BME280;41577;47.470;19.080;2022-07-29T00:06:17;100164.91;;;23.81;44.74
53868;BME280;41577;47.470;19.080;2022-07-29T00:06:32;100160.84;;;23.78;44.87
53868;BME280;41577;47.470;19.080;2022-07-29T00:06:50;100160.84;;;23.78;44.83
53868;BME280;41577;47.470;19.080;2022-07-29T00:07:06;100165.47;;;23.78;44.69
53868;BME280;41577;47.470;19.080;2022-07-29T00:07:22;100167.41;;;23.77;44.87
53868;BME280;41577;47.470;19.080;2022-07-29T00:07:36;100161.94;;;23.77;44.50
53868;BME280;41577;47.470;19.080;2022-07-29T00:07:53;100164.69;;;23.77;44.77
53868;BME280;41577;47.470;19.080;2022-07-29T00:08:09;100157.56;;;23.76;45.11
53868;BME280;41577;47.470;19.080;2022-07-29T00:08:24;100159.50;;;23.76;44.99
53868;BME280;41577;47.470;19.080;2022-07-29T00:08:39;100168.47;;;23.76;45.33
53868;BME280;41577;47.470;19.080;2022-07-29T00:08:53;100165.75;;;23.76;44.96
53868;BME280;41577;47.470;19.080;2022-07-29T00:09:09;100166.88;;;23.75;45.06
53868;BME280;41577;47.470;19.080;2022-07-29T00:09:26;100153.75;;;23.77;45.01
53868;BME280;41577;47.470;19.080;2022-07-29T00:09:41;100162.22;;;23.76;45.02
53868;BME280;41577;47.470;19.080;2022-07-29T00:09:57;100161.41;;;23.75;45.04
53868;BME280;41577;47.470;19.080;2022-07-29T00:10:11;100166.88;;;23.75;44.79
53868;BME280;41577;47.470;19.080;2022-07-29T00:10:26;100166.06;;;23.75;45.11
53868;BME280;41577;47.470;19.080;2022-07-29T00:10:41;100168.78;;;23.75;45.11
53868;BME280;41577;47.470;19.080;2022-07-29T00:10:56;100156.50;;;23.72;45.17
53868;BME280;41577;47.470;19.080;2022-07-29T00:11:12;100163.56;;;23.73;44.88
53868;BME280;41577;47.470;19.080;2022-07-29T00:11:40;100162.75;;;23.73;45.01
53868;BME280;41577;47.470;19.080;2022-07-29T00:11:58;100159.50;;;23.71;45.01
53868;BME280;41577;47.470;19.080;2022-07-29T00:12:14;100169.28;;;23.72;45.20
53868;BME280;41577;47.470;19.080;2022-07-29T00:12:35;100156.75;;;23.71;45.05
53868;BME280;41577;47.470;19.080;2022-07-29T00:12:54;100158.69;;;23.70;45.23
53868;BME280;41577;47.470;19.080;2022-07-29T00:13:11;100167.94;;;23.69;45.14
53868;BME280;41577;47.470;19.080;2022-07-29T00:13:27;100158.69;;;23.70;45.29
53868;BME280;41577;47.470;19.080;2022-07-29T00:13:42;100164.13;;;23.70;45.15
53868;BME280;41577;47.470;19.080;2022-07-29T00:14:00;100163.03;;;23.71;45.11
53868;BME280;41577;47.470;19.080;2022-07-29T00:14:16;100170.41;;;23.71;45.16
53868;BME280;41577;47.470;19.080;2022-07-29T00:14:31;100160.84;;;23.73;45.03
53868;BME280;41577;47.470;19.080;2022-07-29T00:14:47;100160.84;;;23.78;44.98
53868;BME280;41577;47.470;19.080;2022-07-29T00:15:02;100163.88;;;23.77;44.82
53868;BME280;41577;47.470;19.080;2022-07-29T00:15:16;100163.88;;;23.77;44.76
53868;BME280;41577;47.470;19.080;2022-07-29T00:15:34;100164.13;;;23.75;45.06
53868;BME280;41577;47.470;19.080;2022-07-29T00:15:54;100162.22;;;23.76;45.05
53868;BME280;41577;47.470;19.080;2022-07-29T00:16:10;100158.91;;;23.74;44.98
53868;BME280;41577;47.470;19.080;2022-07-29T00:16:25;100160.84;;;23.73;45.05
53868;BME280;41577;47.470;19.080;2022-07-29T00:16:43;100162.75;;;23.73;44.97
53868;BME280;41577;47.470;19.080;2022-07-29T00:17:02;100173.66;;;23.73;45.09
53868;BME280;41577;47.470;19.080;2022-07-29T00:17:18;100156.75;;;23.71;45.25
53868;BME280;41577;47.470;19.080;2022-07-29T00:17:34;100166.56;;;23.72;45.33
53868;BME280;41577;47.470;19.080;2022-07-29T00:17:49;100168.78;;;23.70;45.07
53868;BME280;41577;47.470;19.080;2022-07-29T00:18:05;100158.38;;;23.72;45.18
53868;BME280;41577;47.470;19.080;2022-07-29T00:18:24;100152.13;;;23.71;45.54
53868;BME280;41577;47.470;19.080;2022-07-29T00:18:39;100159.50;;;23.71;45.33
53868;BME280;41577;47.470;19.080;2022-07-29T00:18:54;100164.94;;;23.71;45.39
53868;BME280;41577;47.470;19.080;2022-07-29T00:19:08;100162.22;;;23.71;45.38
53868;BME280;41577;47.470;19.080;2022-07-29T00:19:22;100164.13;;;23.70;45.63
53868;BME280;41577;47.470;19.080;2022-07-29T00:19:38;100158.69;;;23.70;45.49
53868;BME280;41577;47.470;19.080;2022-07-29T00:19:53;100166.06;;;23.70;45.19
53868;BME280;41577;47.470;19.080;2022-07-29T00:20:17;100163.84;;;23.72;45.05
53868;BME280;41577;47.470;19.080;2022-07-29T00:20:32;100164.69;;;23.72;45.07
53868;BME280;41577;47.470;19.080;2022-07-29T00:20:47;100163.03;;;23.71;45.08
53868;BME280;41577;47.470;19.080;2022-07-29T00:21:03;100165.75;;;23.71;44.98
53868;BME280;41577;47.470;19.080;2022-07-29T00:21:18;100163.84;;;23.72;45.13
53868;BME280;41577;47.470;19.080;2022-07-29T00:21:36;100175.84;;;23.71;45.00
53868;BME280;41577;47.470;19.080;2022-07-29T00:21:52;100164.13;;;23.70;45.17
53868;BME280;41577;47.470;19.080;2022-07-29T00:22:10;100161.13;;;23.77;45.07
53868;BME280;41577;47.470;19.080;2022-07-29T00:22:26;100154.56;;;23.78;45.16
53868;BME280;41577;47.470;19.080;2022-07-29T00:22:42;100162.75;;;23.78;45.20
53868;BME280;41577;47.470;19.080;2022-07-29T00:22:56;100166.59;;;23.77;44.89
53868;BME280;41577;47.470;19.080;2022-07-29T00:23:11;100166.59;;;23.77;44.91
53868;BME280;41577;47.470;19.080;2022-07-29T00:23:27;100164.38;;;23.74;44.75
53868;BME280;41577;47.470;19.080;2022-07-29T00:23:43;100169.59;;;23.75;44.97
53868;BME280;41577;47.470;19.080;2022-07-29T00:23:59;100164.13;;;23.75;44.98
53868;BME280;41577;47.470;19.080;2022-07-29T00:24:15;100168.78;;;23.75;45.28
53868;BME280;41577;47.470;19.080;2022-07-29T00:24:33;100166.28;;;23.73;45.18
53868;BME280;41577;47.470;19.080;2022-07-29T00:24:47;100165.47;;;23.73;45.37
53868;BME280;41577;47.470;19.080;2022-07-29T00:25:02;100165.47;;;23.73;45.16
53868;BME280;41577;47.470;19.080;2022-07-29T00:25:18;100164.38;;;23.74;45.37
53868;BME280;41577;47.470;19.080;2022-07-29T00:25:33;100171.50;;;23.75;45.87
53868;BME280;41577;47.470;19.080;2022-07-29T00:25:48;100166.88;;;23.75;45.09
53868;BME280;41577;47.470;19.080;2022-07-29T00:26:03;100165.25;;;23.74;45.22
53868;BME280;41577;47.470;19.080;2022-07-29T00:26:18;100167.97;;;23.74;45.22
53868;BME280;41577;47.470;19.080;2022-07-29T00:26:34;100161.94;;;23.72;45.20
53868;BME280;41577;47.470;19.080;2022-07-29T00:26:51;100162.75;;;23.73;45.24
53868;BME280;41577;47.470;19.080;2022-07-29T00:27:07;100166.56;;;23.72;45.25
53868;BME280;41577;47.470;19.080;2022-07-29T00:27:25;100162.75;;;23.73;45.37
53868;BME280;41577;47.470;19.080;2022-07-29T00:27:39;100177.47;;;23.72;45.30
53868;BME280;41577;47.470;19.080;2022-07-29T00:27:55;100171.75;;;23.73;45.70
53868;BME280;41577;47.470;19.080;2022-07-29T00:28:11;100173.66;;;23.73;45.16
53868;BME280;41577;47.470;19.080;2022-07-29T00:28:25;100166.56;;;23.72;45.40
53868;BME280;41577;47.470;19.080;2022-07-29T00:28:41;100166.56;;;23.72;45.30
53868;BME280;41577;47.470;19.080;2022-07-29T00:28:56;100157.56;;;23.71;45.33
53868;BME280;41577;47.470;19.080;2022-07-29T00:29:14;100160.28;;;23.71;45.42
53868;BME280;41577;47.470;19.080;2022-07-29T00:29:33;100166.88;;;23.70;45.50
53868;BME280;41577;47.470;19.080;2022-07-29T00:29:48;100171.22;;;23.71;45.52
53868;BME280;41577;47.470;19.080;2022-07-29T00:30:07;100165.75;;;23.71;45.48
53868;BME280;41577;47.470;19.080;2022-07-29T00:30:24;100170.41;;;23.71;45.52
53868;BME280;41577;47.470;19.080;2022-07-29T00:30:38;100169.59;;;23.70;45.47
53868;BME280;41577;47.470;19.080;2022-07-29T00:30:53;100166.88;;;23.70;45.52
53868;BME280;41577;47.470;19.080;2022-07-29T00:31:09;100174.22;;;23.70;45.46
53868;BME280;41577;47.470;19.080;2022-07-29T00:31:25;100164.94;;;23.71;45.33
53868;BME280;41577;47.470;19.080;2022-07-29T00:31:45;100170.41;;;23.71;45.38
53868;BME280;41577;47.470;19.080;2022-07-29T00:31:59;100178.56;;;23.71;45.21
53868;BME280;41577;47.470;19.080;2022-07-29T00:32:15;100173.13;;;23.71;45.27
53868;BME280;41577;47.470;19.080;2022-07-29T00:32:31;100173.94;;;23.71;45.59
53868;BME280;41577;47.470;19.080;2022-07-29T00:32:48;100177.47;;;23.72;45.49
53868;BME280;41577;47.470;19.080;2022-07-29T00:33:04;100176.66;;;23.71;45.24
53868;BME280;41577;47.470;19.080;2022-07-29T00:33:20;100174.22;;;23.70;45.20
53868;BME280;41577;47.470;19.080;2022-07-29T00:33:37;100175.28;;;23.74;45.17
53868;BME280;41577;47.470;19.080;2022-07-29T00:33:55;100171.50;;;23.75;45.22
53868;BME280;41577;47.470;19.080;2022-07-29T00:34:12;100166.56;;;23.72;45.25
53868;BME280;41577;47.470;19.080;2022-07-29T00:34:42;100170.69;;;23.74;45.15
53868;BME280;41577;47.470;19.080;2022-07-29T00:35:15;100168.47;;;23.71;45.13
53868;BME280;41577;47.470;19.080;2022-07-29T00:35:48;100173.69;;;23.68;45.33
53868;BME280;41577;47.470;19.080;2022-07-29T00:36:06;100176.41;;;23.68;45.28
53868;BME280;41577;47.470;19.080;2022-07-29T00:36:20;100172.03;;;23.67;45.41
53868;BME280;41577;47.470;19.080;2022-07-29T00:36:35;100171.22;;;23.66;45.51
53868;BME280;41577;47.470;19.080;2022-07-29T00:36:49;100173.16;;;23.66;45.46
53868;BME280;41577;47.470;19.080;2022-07-29T00:37:04;100176.97;;;23.65;45.34
53868;BME280;41577;47.470;19.080;2022-07-29T00:37:19;100168.78;;;23.65;45.42
53868;BME280;41577;47.470;19.080;2022-07-29T00:37:35;100167.16;;;23.64;45.57
53868;BME280;41577;47.470;19.080;2022-07-29T00:37:51;100172.59;;;23.64;45.38
53868;BME280;41577;47.470;19.080;2022-07-29T00:38:05;100172.59;;;23.64;45.57
53868;BME280;41577;47.470;19.080;2022-07-29T00:38:20;100170.97;;;23.63;45.49
53868;BME280;41577;47.470;19.080;2022-07-29T00:38:37;100179.13;;;23.63;45.55
53868;BME280;41577;47.470;19.080;2022-07-29T00:38:53;100173.69;;;23.63;45.37
53868;BME280;41577;47.470;19.080;2022-07-29T00:39:08;100170.16;;;23.62;45.69
53868;BME280;41577;47.470;19.080;2022-07-29T00:39:23;100173.19;;;23.61;45.44
53868;BME280;41577;47.470;19.080;2022-07-29T00:39:38;100184.91;;;23.61;45.58
53868;BME280;41577;47.470;19.080;2022-07-29T00:39:53;100172.34;;;23.60;45.43
53868;BME280;41577;47.470;19.080;2022-07-29T00:40:12;100172.34;;;23.60;45.63
53868;BME280;41577;47.470;19.080;2022-07-29T00:40:26;100173.44;;;23.59;45.53
53868;BME280;41577;47.470;19.080;2022-07-29T00:40:41;100169.06;;;23.58;45.51
53868;BME280;41577;47.470;19.080;2022-07-29T00:40:57;100173.44;;;23.59;45.52
53868;BME280;41577;47.470;19.080;2022-07-29T00:41:17;100172.34;;;23.65;45.29
53868;BME280;41577;47.470;19.080;2022-07-29T00:41:32;100174.22;;;23.65;45.44
53868;BME280;41577;47.470;19.080;2022-07-29T00:41:49;100173.16;;;23.66;45.49
53868;BME280;41577;47.470;19.080;2022-07-29T00:42:06;100171.81;;;23.63;45.48
53868;BME280;41577;47.470;19.080;2022-07-29T00:42:22;100172.88;;;23.62;45.58
53868;BME280;41577;47.470;19.080;2022-07-29T00:42:43;100172.06;;;23.62;45.43
53868;BME280;41577;47.470;19.080;2022-07-29T00:43:00;100180.25;;;23.62;45.50
53868;BME280;41577;47.470;19.080;2022-07-29T00:43:19;100183.25;;;23.60;45.45
53868;BME280;41577;47.470;19.080;2022-07-29T00:43:36;100175.06;;;23.60;45.76
53868;BME280;41577;47.470;19.080;2022-07-29T00:43:50;100180.81;;;23.58;45.54
53868;BME280;41577;47.470;19.080;2022-07-29T00:44:09;100171.78;;;23.58;45.59
53868;BME280;41577;47.470;19.080;2022-07-29T00:44:24;100166.34;;;23.58;45.64
53868;BME280;41577;47.470;19.080;2022-07-29T00:44:41;100181.09;;;23.57;45.86
53868;BME280;41577;47.470;19.080;2022-07-29T00:44:57;100171.25;;;23.56;45.66
53868;BME280;41577;47.470;19.080;2022-07-29T00:45:15;100172.09;;;23.56;45.69
53868;BME280;41577;47.470;19.080;2022-07-29T00:45:29;100164.44;;;23.53;45.71
53868;BME280;41577;47.470;19.080;2022-07-29T00:45:44;100178.09;;;23.53;45.49
53868;BME280;41577;47.470;19.080;2022-07-29T00:46:00;100171.00;;;23.52;45.85
53868;BME280;41577;47.470;19.080;2022-07-29T00:46:17;100170.19;;;23.57;45.76
53868;BME280;41577;47.470;19.080;2022-07-29T00:46:33;100171.78;;;23.58;45.64
53868;BME280;41577;47.470;19.080;2022-07-29T00:46:50;100178.63;;;23.61;46.00
53868;BME280;41577;47.470;19.080;2022-07-29T00:47:08;100175.06;;;23.60;45.45
53868;BME280;41577;47.470;19.080;2022-07-29T00:47:23;100168.81;;;23.59;45.77
53868;BME280;41577;47.470;19.080;2022-07-29T00:47:43;100172.63;;;23.58;45.88
53868;BME280;41577;47.470;19.080;2022-07-29T00:48:03;100170.72;;;23.59;45.61
53868;BME280;41577;47.470;19.080;2022-07-29T00:48:18;100170.44;;;23.61;45.80
53868;BME280;41577;47.470;19.080;2022-07-29T00:48:35;100174.25;;;23.59;45.78
53868;BME280;41577;47.470;19.080;2022-07-29T00:48:53;100171.53;;;23.59;45.76
53868;BME280;41577;47.470;19.080;2022-07-29T00:49:11;100176.97;;;23.59;45.94
53868;BME280;41577;47.470;19.080;2022-07-29T00:49:27;100174.78;;;23.62;45.82
53868;BME280;41577;47.470;19.080;2022-07-29T00:49:44;100172.34;;;23.60;45.96
53868;BME280;41577;47.470;19.080;2022-07-29T00:50:04;100171.25;;;23.61;45.88
53868;BME280;41577;47.470;19.080;2022-07-29T00:50:25;100176.41;;;23.63;46.14
53868;BME280;41577;47.470;19.080;2022-07-29T00:50:39;100168.53;;;23.61;45.90
53868;BME280;41577;47.470;19.080;2022-07-29T00:50:57;100166.88;;;23.60;45.65
53868;BME280;41577;47.470;19.080;2022-07-29T00:51:18;100174.78;;;23.62;45.98
53868;BME280;41577;47.470;19.080;2022-07-29T00:51:40;100169.34;;;23.62;45.77
53868;BME280;41577;47.470;19.080;2022-07-29T00:51:56;100171.25;;;23.61;45.63
53868;BME280;41577;47.470;19.080;2022-07-29T00:52:22;100167.72;;;23.61;45.51
53868;BME280;41577;47.470;19.080;2022-07-29T00:52:40;100178.63;;;23.61;45.56
53868;BME280;41577;47.470;19.080;2022-07-29T00:52:59;100169.06;;;23.58;45.69
53868;BME280;41577;47.470;19.080;2022-07-29T00:53:17;100169.06;;;23.58;45.59
53868;BME280;41577;47.470;19.080;2022-07-29T00:53:40;100166.34;;;23.58;45.70
53868;BME280;41577;47.470;19.080;2022-07-29T00:54:01;100172.88;;;23.62;45.70
53868;BME280;41577;47.470;19.080;2022-07-29T00:54:19;100174.53;;;23.63;45.62
53868;BME280;41577;47.470;19.080;2022-07-29T00:54:35;100179.69;;;23.70;45.44
53868;BME280;41577;47.470;19.080;2022-07-29T00:54:49;100175.03;;;23.75;45.31
53868;BME280;41577;47.470;19.080;2022-07-29T00:55:09;100170.69;;;23.74;45.29
53868;BME280;41577;47.470;19.080;2022-07-29T00:55:34;100167.66;;;23.71;45.37
53868;BME280;41577;47.470;19.080;2022-07-29T00:55:50;100175.84;;;23.71;45.37
53868;BME280;41577;47.470;19.080;2022-07-29T00:56:07;100167.09;;;23.74;45.19
53868;BME280;41577;47.470;19.080;2022-07-29T00:56:22;100172.00;;;23.72;45.25
53868;BME280;41577;47.470;19.080;2022-07-29T00:56:37;100181.31;;;23.71;45.49
53868;BME280;41577;47.470;19.080;2022-07-29T00:56:52;100172.59;;;23.69;45.43
53868;BME280;41577;47.470;19.080;2022-07-29T00:57:16;100174.22;;;23.70;45.41
53868;BME280;41577;47.470;19.080;2022-07-29T00:57:31;100175.31;;;23.69;45.28
53868;BME280;41577;47.470;19.080;2022-07-29T00:57:49;100175.59;;;23.72;45.30
53868;BME280;41577;47.470;19.080;2022-07-29T00:58:06;100172.31;;;23.70;45.00
53868;BME280;41577;47.470;19.080;2022-07-29T00:58:23;100173.38;;;23.69;45.45
53868;BME280;41577;47.470;19.080;2022-07-29T00:58:38;100168.25;;;23.68;45.67
53868;BME280;41577;47.470;19.080;2022-07-29T00:58:55;100169.31;;;23.67;45.51
53868;BME280;41577;47.470;19.080;2022-07-29T00:59:11;100167.97;;;23.64;45.73
53868;BME280;41577;47.470;19.080;2022-07-29T00:59:30;100172.06;;;23.62;45.62
53868;BME280;41577;47.470;19.080;2022-07-29T00:59:49;100165.25;;;23.64;45.42
53868;BME280;41577;47.470;19.080;2022-07-29T01:00:10;100177.25;;;23.63;45.46
53868;BME280;41577;47.470;19.080;2022-07-29T01:00:26;100168.22;;;23.63;45.51
53868;BME280;41577;47.470;19.080;2022-07-29T01:00:40;100175.34;;;23.64;45.34
53868;BME280;41577;47.470;19.080;2022-07-29T01:01:02;100171.81;;;23.63;45.51
53868;BME280;41577;47.470;19.080;2022-07-29T01:01:17;100173.19;;;23.61;45.58
53868;BME280;41577;47.470;19.080;2022-07-29T01:01:36;100171.25;;;23.61;45.49
53868;BME280;41577;47.470;19.080;2022-07-29T01:01:51;100175.91;;;23.61;45.65
53868;BME280;41577;47.470;19.080;2022-07-29T01:02:07;100174.25;;;23.59;45.61
53868;BME280;41577;47.470;19.080;2022-07-29T01:02:24;100174.25;;;23.59;45.74
53868;BME280;41577;47.470;19.080;2022-07-29T01:02:42;100176.97;;;23.59;45.67
53868;BME280;41577;47.470;19.080;2022-07-29T01:03:00;100170.72;;;23.59;45.75
53868;BME280;41577;47.470;19.080;2022-07-29T01:03:19;100172.91;;;23.57;45.66
53868;BME280;41577;47.470;19.080;2022-07-29T01:03:40;100171.00;;;23.57;45.69
53868;BME280;41577;47.470;19.080;2022-07-29T01:03:58;100169.38;;;23.56;45.71
53868;BME280;41577;47.470;19.080;2022-07-29T01:04:15;100172.09;;;23.56;45.84
53868;BME280;41577;47.470;19.080;2022-07-29T01:04:31;100170.44;;;23.55;45.72
53868;BME280;41577;47.470;19.080;2022-07-29T01:04:49;100171.53;;;23.59;45.63
53868;BME280;41577;47.470;19.080;2022-07-29T01:05:04;100171.78;;;23.58;45.49
53868;BME280;41577;47.470;19.080;2022-07-29T01:05:22;100165.00;;;23.61;45.76
53868;BME280;41577;47.470;19.080;2022-07-29T01:05:40;100169.34;;;23.62;45.68
53868;BME280;41577;47.470;19.080;2022-07-29T01:05:55;100167.72;;;23.61;45.74
53868;BME280;41577;47.470;19.080;2022-07-29T01:06:11;100164.16;;;23.60;45.69
53868;BME280;41577;47.470;19.080;2022-07-29T01:06:30;100167.19;;;23.58;45.69
53868;BME280;41577;47.470;19.080;2022-07-29T01:06:47;100158.16;;;23.58;45.83
53868;BME280;41577;47.470;19.080;2022-07-29T01:07:02;100171.00;;;23.57;45.66
53868;BME280;41577;47.470;19.080;2022-07-29T01:07:18;100168.00;;;23.59;45.82
53868;BME280;41577;47.470;19.080;2022-07-29T01:07:34;100160.88;;;23.58;45.87
53868;BME280;41577;47.470;19.080;2022-07-29T01:07:51;100164.16;;;23.60;46.38
53868;BME280;41577;47.470;19.080;2022-07-29T01:08:12;100159.00;;;23.58;45.77
53868;BME280;41577;47.470;19.080;2022-07-29T01:08:28;100166.06;;;23.59;45.69
53868;BME280;41577;47.470;19.080;2022-07-29T01:08:42;100164.16;;;23.60;45.57
53868;BME280;41577;47.470;19.080;2022-07-29T01:08:59;100162.53;;;23.59;45.70
53868;BME280;41577;47.470;19.080;2022-07-29T01:09:17;100156.28;;;23.58;45.76
53868;BME280;41577;47.470;19.080;2022-07-29T01:09:34;100165.28;;;23.59;45.82
53868;BME280;41577;47.470;19.080;2022-07-29T01:09:52;100166.88;;;23.60;45.71
53868;BME280;41577;47.470;19.080;2022-07-29T01:10:13;100159.53;;;23.61;45.59
53868;BME280;41577;47.470;19.080;2022-07-29T01:10:30;100160.63;;;23.59;45.77
53868;BME280;41577;47.470;19.080;2022-07-29T01:10:46;100153.56;;;23.58;45.62
53868;BME280;41577;47.470;19.080;2022-07-29T01:11:02;100164.47;;;23.58;45.60
53868;BME280;41577;47.470;19.080;2022-07-29T01:11:18;100169.91;;;23.58;45.72
53868;BME280;41577;47.470;19.080;2022-07-29T01:11:40;100159.28;;;23.57;45.60
53868;BME280;41577;47.470;19.080;2022-07-29T01:12:02;100159.28;;;23.57;45.66
53868;BME280;41577;47.470;19.080;2022-07-29T01:12:18;100155.75;;;23.56;45.75
53868;BME280;41577;47.470;19.080;2022-07-29T01:12:36;100156.81;;;23.55;45.67
53868;BME280;41577;47.470;19.080;2022-07-29T01:12:56;100155.75;;;23.56;45.97
53868;BME280;41577;47.470;19.080;2022-07-29T01:13:15;100157.63;;;23.56;45.92
53868;BME280;41577;47.470;19.080;2022-07-29T01:13:33;100160.66;;;23.54;45.84
53868;BME280;41577;47.470;19.080;2022-07-29T01:14:09;100160.34;;;23.56;45.73
53868;BME280;41577;47.470;19.080;2022-07-29T01:14:29;100170.19;;;23.57;45.83
53868;BME280;41577;47.470;19.080;2022-07-29T01:14:47;100162.81;;;23.57;46.05
53868;BME280;41577;47.470;19.080;2022-07-29T01:15:09;100164.72;;;23.57;45.73
53868;BME280;41577;47.470;19.080;2022-07-29T01:15:26;100163.06;;;23.56;45.70
53868;BME280;41577;47.470;19.080;2022-07-29T01:15:47;100160.34;;;23.56;45.78
53868;BME280;41577;47.470;19.080;2022-07-29T01:16:09;100158.72;;;23.55;45.87
53868;BME280;41577;47.470;19.080;2022-07-29T01:16:32;100161.72;;;23.58;45.90
53868;BME280;41577;47.470;19.080;2022-07-29T01:16:51;100162.81;;;23.57;45.69
53868;BME280;41577;47.470;19.080;2022-07-29T01:17:21;100162.81;;;23.57;45.91
53868;BME280;41577;47.470;19.080;2022-07-29T01:17:44;100167.72;;;23.55;45.85
53868;BME280;41577;47.470;19.080;2022-07-29T01:18:03;100164.19;;;23.55;45.86
53868;BME280;41577;47.470;19.080;2022-07-29T01:18:23;100160.66;;;23.54;45.75
53868;BME280;41577;47.470;19.080;2022-07-29T01:18:46;100166.34;;;23.58;45.76
53868;BME280;41577;47.470;19.080;2022-07-29T01:19:13;100164.72;;;23.57;45.83
53868;BME280;41577;47.470;19.080;2022-07-29T01:19:49;100159.00;;;23.53;45.93
53868;BME280;41577;47.470;19.080;2022-07-29T01:20:09;100159.00;;;23.53;45.84
53868;BME280;41577;47.470;19.080;2022-07-29T01:20:50;100165.28;;;23.54;45.73
53868;BME280;41577;47.470;19.080;2022-07-29T01:21:40;100166.09;;;23.54;45.86
53868;BME280;41577;47.470;19.080;2022-07-29T01:22:00;100158.47;;;23.56;46.04
53868;BME280;41577;47.470;19.080;2022-07-29T01:22:42;100166.34;;;23.58;46.09
53868;BME280;41577;47.470;19.080;2022-07-29T01:24:12;100160.91;;;23.53;46.12
53868;BME280;41577;47.470;19.080;2022-07-29T01:24:35;100166.09;;;23.54;45.97
53868;BME280;41577;47.470;19.080;2022-07-29T01:25:06;100160.66;;;23.54;45.97
53868;BME280;41577;47.470;19.080;2022-07-29T01:25:45;100163.91;;;23.56;46.21
53868;BME280;41577;47.470;19.080;2022-07-29T01:26:23;100156.81;;;23.55;46.11
53868;BME280;41577;47.470;19.080;2022-07-29T01:26:46;100159.53;;;23.55;46.11
53868;BME280;41577;47.470;19.080;2022-07-29T01:27:14;100165.28;;;23.54;46.01
53868;BME280;41577;47.470;19.080;2022-07-29T01:27:43;100169.38;;;23.51;45.95
53868;BME280;41577;47.470;19.080;2022-07-29T01:28:20;100164.22;;;23.50;46.10
53868;BME280;41577;47.470;19.080;2022-07-29T01:29:00;100171.81;;;23.53;46.04
53868;BME280;41577;47.470;19.080;2022-07-29T01:29:24;100161.72;;;23.53;46.03
53868;BME280;41577;47.470;19.080;2022-07-29T01:29:46;100157.91;;;23.54;46.02
53868;BME280;41577;47.470;19.080;2022-07-29T01:30:07;100161.72;;;23.53;45.99
53868;BME280;41577;47.470;19.080;2022-07-29T01:30:25;100157.38;;;23.52;45.74
53868;BME280;41577;47.470;19.080;2022-07-29T01:30:42;100162.84;;;23.52;46.10
53868;BME280;41577;47.470;19.080;2022-07-29T01:31:00;100154.94;;;23.51;45.95
53868;BME280;41577;47.470;19.080;2022-07-29T01:31:25;100163.09;;;23.51;46.06
53868;BME280;41577;47.470;19.080;2022-07-29T01:31:47;100156.84;;;23.50;46.14
53868;BME280;41577;47.470;19.080;2022-07-29T01:32:10;100157.94;;;23.49;46.13
53868;BME280;41577;47.470;19.080;2022-07-29T01:32:30;100156.31;;;23.48;46.25
53868;BME280;41577;47.470;19.080;2022-07-29T01:32:50;100152.75;;;23.48;46.42
53868;BME280;41577;47.470;19.080;2022-07-29T01:33:13;100158.22;;;23.48;46.36
53868;BME280;41577;47.470;19.080;2022-07-29T01:33:55;100150.84;;;23.48;46.67
53868;BME280;41577;47.470;19.080;2022-07-29T01:34:19;100152.50;;;23.49;46.16
53868;BME280;41577;47.470;19.080;2022-07-29T01:34:41;100152.50;;;23.49;46.19
53868;BME280;41577;47.470;19.080;2022-07-29T01:35:02;100147.84;;;23.50;46.33
53868;BME280;41577;47.470;19.080;2022-07-29T01:35:21;100149.78;;;23.49;46.26
53868;BME280;41577;47.470;19.080;2022-07-29T01:35:40;100156.84;;;23.50;46.75
53868;BME280;41577;47.470;19.080;2022-07-29T01:35:56;100154.66;;;23.52;46.58